Time;durP1;ratioP1;P1;durP2;ratioP2;P2;SDS_P1;SDS_P2;PMS_P1;PMS_P2;Temp;Humidity;BMP_temperature;BMP_pressure;BME280_temperature;BME280_humidity;BME280_pressure;Samples;Min_cycle;Max_cycle;Signal;HPM_P1;HPM_P2
2023/11/20 00:00:38;;;;;;;18.75;3.80;;;;;;;;;;5051678;28;20025;-78
2023/11/20 00:03:04;;;;;;;20.77;3.83;;;;;;;;;;5068934;28;20031;-78
2023/11/20 00:05:29;;;;;;;18.83;3.75;;;;;;;;;;5039532;28;20032;-78
2023/11/20 00:07:54;;;;;;;14.80;3.15;;;;;;;;;;5064825;28;20028;-78
2023/11/20 00:10:20;;;;;;;15.25;3.00;;;;;;;;;;5092242;28;20025;-77
2023/11/20 00:12:45;;;;;;;14.02;2.70;;;;;;;;;;5073812;28;20474;-77
2023/11/20 00:15:11;;;;;;;15.68;3.90;;;;;;;;;;5052550;28;20020;-77
2023/11/20 00:17:37;;;;;;;19.33;3.67;;;;;;;;;;5054687;28;20032;-78
2023/11/20 00:20:05;;;;;;;15.85;3.10;;;;;;;;;;5073488;28;20406;-77
2023/11/20 00:22:30;;;;;;;14.65;2.83;;;;;;;;;;5037253;28;20067;-77
2023/11/20 00:24:56;;;;;;;15.05;3.22;;;;;;;;;;5060798;28;20056;-78
2023/11/20 00:27:21;;;;;;;17.98;2.55;;;;;;;;;;5061739;28;20383;-85
2023/11/20 00:29:46;;;;;;;15.35;2.50;;;;;;;;;;5056528;28;20394;-85
2023/11/20 00:32:13;;;;;;;16.63;3.03;;;;;;;;;;5089318;28;20148;-86
2023/11/20 00:34:39;;;;;;;18.83;2.58;;;;;;;;;;5066666;28;20502;-85
2023/11/20 00:37:05;;;;;;;17.52;2.10;;;;;;;;;;5059945;28;20393;-85
2023/11/20 00:39:30;;;;;;;16.38;2.10;;;;;;;;;;5048497;28;20029;-84
2023/11/20 00:41:56;;;;;;;14.65;2.40;;;;;;;;;;5042019;28;20037;-86
2023/11/20 00:44:22;;;;;;;14.57;2.40;;;;;;;;;;5055313;28;20085;-85
2023/11/20 00:46:48;;;;;;;14.07;2.53;;;;;;;;;;5067990;28;20025;-85
2023/11/20 00:49:13;;;;;;;17.10;2.42;;;;;;;;;;5053692;28;20032;-85
2023/11/20 00:51:38;;;;;;;13.18;2.40;;;;;;;;;;5077190;28;20414;-85
2023/11/20 00:54:04;;;;;;;13.55;2.60;;;;;;;;;;5066245;28;20446;-86
2023/11/20 00:56:29;;;;;;;18.00;2.85;;;;;;;;;;5056780;28;20043;-85
2023/11/20 00:58:55;;;;;;;8.43;1.90;;;;;;;;;;5064353;28;20486;-86
2023/11/20 01:01:21;;;;;;;14.55;2.30;;;;;;;;;;5071777;28;20051;-85
2023/11/20 01:03:46;;;;;;;14.50;2.03;;;;;;;;;;5047373;28;20040;-85
2023/11/20 01:06:12;;;;;;;12.20;2.30;;;;;;;;;;5068298;28;20043;-85
2023/11/20 01:08:40;;;;;;;15.18;3.05;;;;;;;;;;5033135;28;20467;-85
2023/11/20 01:11:09;;;;;;;8.85;1.70;;;;;;;;;;5093862;28;20044;-85
2023/11/20 01:13:38;;;;;;;14.65;1.77;;;;;;;;;;5083802;28;20032;-85
2023/11/20 01:16:05;;;;;;;17.60;2.60;;;;;;;;;;5069173;28;20511;-85
2023/11/20 01:18:32;;;;;;;10.65;1.83;;;;;;;;;;5068051;28;20041;-85
2023/11/20 01:20:57;;;;;;;13.63;1.98;;;;;;;;;;5071459;28;20029;-84
2023/11/20 01:23:23;;;;;;;13.80;2.45;;;;;;;;;;5057068;28;20029;-85
2023/11/20 01:25:48;;;;;;;15.13;2.03;;;;;;;;;;5050460;28;20024;-85
2023/11/20 01:28:13;;;;;;;15.05;2.33;;;;;;;;;;5072837;28;20023;-85
2023/11/20 01:30:39;;;;;;;15.07;2.03;;;;;;;;;;5054264;28;20086;-85
2023/11/20 01:33:04;;;;;;;11.82;1.80;;;;;;;;;;5042769;28;20394;-85
2023/11/20 01:35:30;;;;;;;15.85;2.35;;;;;;;;;;5050413;28;20058;-85
2023/11/20 01:37:55;;;;;;;16.00;2.05;;;;;;;;;;5064664;28;20040;-86
2023/11/20 01:40:21;;;;;;;12.40;1.95;;;;;;;;;;5052391;28;20041;-85
2023/11/20 01:42:46;;;;;;;8.88;1.88;;;;;;;;;;5037049;28;20027;-85
2023/11/20 01:45:12;;;;;;;13.32;1.75;;;;;;;;;;5049587;28;20444;-85
2023/11/20 01:47:38;;;;;;;12.07;2.15;;;;;;;;;;5046047;28;20032;-85
2023/11/20 01:50:07;;;;;;;15.60;2.17;;;;;;;;;;5057089;28;20039;-85
2023/11/20 01:52:34;;;;;;;11.43;1.90;;;;;;;;;;5064851;28;20028;-84
2023/11/20 01:55:01;;;;;;;16.13;1.88;;;;;;;;;;5070243;28;20540;-86
2023/11/20 01:57:26;;;;;;;13.05;2.05;;;;;;;;;;5074665;28;20060;-84
2023/11/20 01:59:52;;;;;;;14.63;1.98;;;;;;;;;;5050856;28;20412;-85
2023/11/20 02:02:17;;;;;;;13.93;2.30;;;;;;;;;;5083881;28;20107;-85
2023/11/20 02:04:45;;;;;;;14.10;2.10;;;;;;;;;;5071631;28;20056;-85
2023/11/20 02:07:10;;;;;;;13.65;1.92;;;;;;;;;;5062449;28;20517;-85
2023/11/20 02:09:36;;;;;;;15.18;2.53;;;;;;;;;;5076324;28;20020;-84
2023/11/20 02:12:02;;;;;;;13.63;2.03;;;;;;;;;;5063757;28;20224;-86
2023/11/20 02:14:28;;;;;;;15.73;1.88;;;;;;;;;;5052530;28;20040;-85
2023/11/20 02:16:53;;;;;;;15.77;2.70;;;;;;;;;;5060008;28;20459;-78
2023/11/20 02:19:19;;;;;;;14.30;2.65;;;;;;;;;;5053679;28;20025;-77
2023/11/20 02:21:44;;;;;;;15.23;2.25;;;;;;;;;;5093408;28;20486;-78
2023/11/20 02:24:11;;;;;;;16.27;2.88;;;;;;;;;;5079723;28;20021;-77
2023/11/20 02:26:49;;;;;;;15.57;2.13;;;;;;;;;;5054631;28;20036;-77
2023/11/20 02:29:53;;;;;;;19.25;2.70;;;;;;;;;;5056848;28;20098;-78
2023/11/20 02:32:20;;;;;;;18.83;2.70;;;;;;;;;;5066988;28;20037;-77
2023/11/20 02:34:46;;;;;;;11.07;2.03;;;;;;;;;;5058302;28;20111;-77
2023/11/20 02:37:11;;;;;;;14.85;2.38;;;;;;;;;;5037102;28;20566;-78
2023/11/20 02:39:40;;;;;;;14.23;2.70;;;;;;;;;;5075291;28;20036;-78
2023/11/20 02:42:06;;;;;;;13.63;2.45;;;;;;;;;;5047232;28;20235;-78
2023/11/20 02:44:35;;;;;;;14.98;2.70;;;;;;;;;;5047671;28;20037;-78
2023/11/20 02:47:00;;;;;;;15.10;2.55;;;;;;;;;;5040071;28;20070;-84
2023/11/20 02:49:26;;;;;;;18.52;3.35;;;;;;;;;;5060148;28;20060;-85
2023/11/20 02:51:51;;;;;;;17.48;2.55;;;;;;;;;;5037758;28;20089;-85
2023/11/20 02:54:16;;;;;;;18.35;2.63;;;;;;;;;;5032094;28;20036;-86
2023/11/20 02:56:42;;;;;;;12.27;2.13;;;;;;;;;;5055441;28;20044;-85
2023/11/20 02:59:08;;;;;;;14.90;2.78;;;;;;;;;;5080521;28;20033;-85
2023/11/20 03:01:33;;;;;;;17.13;2.00;;;;;;;;;;5062413;28;20103;-85
2023/11/20 03:03:59;;;;;;;15.88;1.90;;;;;;;;;;5064880;28;20033;-86
2023/11/20 03:06:25;;;;;;;12.07;2.53;;;;;;;;;;5085437;28;20037;-86
2023/11/20 03:08:51;;;;;;;15.05;2.45;;;;;;;;;;5064094;28;20024;-85
2023/11/20 03:11:17;;;;;;;10.75;1.92;;;;;;;;;;5065058;28;20047;-86
2023/11/20 03:13:43;;;;;;;12.75;2.30;;;;;;;;;;5070851;28;20024;-85
2023/11/20 03:16:08;;;;;;;9.90;1.88;;;;;;;;;;5067073;28;20031;-86
2023/11/20 03:18:36;;;;;;;9.43;2.03;;;;;;;;;;5070636;28;20044;-86
2023/11/20 03:21:02;;;;;;;15.55;2.40;;;;;;;;;;5060408;28;20036;-85
2023/11/20 03:23:27;;;;;;;15.93;1.85;;;;;;;;;;5068205;28;20488;-85
2023/11/20 03:25:53;;;;;;;13.45;2.05;;;;;;;;;;5039108;28;20060;-85
2023/11/20 03:28:18;;;;;;;12.98;2.20;;;;;;;;;;5046832;28;20089;-78
2023/11/20 03:30:43;;;;;;;10.45;1.80;;;;;;;;;;5047121;28;20444;-78
2023/11/20 03:33:09;;;;;;;12.90;2.15;;;;;;;;;;5079326;28;20040;-78
2023/11/20 03:35:34;;;;;;;13.63;2.20;;;;;;;;;;5050106;28;20044;-78
2023/11/20 03:38:00;;;;;;;14.77;2.47;;;;;;;;;;5049001;28;20048;-78
2023/11/20 03:40:25;;;;;;;12.95;2.10;;;;;;;;;;5051560;28;20029;-78
2023/11/20 03:42:51;;;;;;;16.15;2.17;;;;;;;;;;5082002;28;20378;-78
2023/11/20 03:45:16;;;;;;;13.85;1.80;;;;;;;;;;5065825;28;20514;-77
2023/11/20 03:47:42;;;;;;;16.70;2.08;;;;;;;;;;5074430;28;20056;-78
2023/11/20 03:50:08;;;;;;;14.93;1.88;;;;;;;;;;5044448;28;20029;-77
2023/11/20 03:52:33;;;;;;;14.05;1.85;;;;;;;;;;5055892;28;20057;-78
2023/11/20 03:55:00;;;;;;;15.32;2.25;;;;;;;;;;5068609;28;20132;-78
2023/11/20 03:57:26;;;;;;;18.20;2.75;;;;;;;;;;5049491;28;20028;-77
2023/11/20 03:59:51;;;;;;;16.40;1.95;;;;;;;;;;5068035;28;20048;-78
2023/11/20 04:02:17;;;;;;;15.40;2.35;;;;;;;;;;5064032;28;20151;-78
2023/11/20 04:04:43;;;;;;;17.52;2.00;;;;;;;;;;5052807;28;20033;-78
2023/11/20 04:07:09;;;;;;;17.42;2.33;;;;;;;;;;5040055;28;20118;-78
2023/11/20 04:09:34;;;;;;;14.45;1.70;;;;;;;;;;5061030;28;20132;-78
2023/11/20 04:12:00;;;;;;;11.23;2.38;;;;;;;;;;5049181;28;20119;-78
2023/11/20 04:14:25;;;;;;;14.20;2.70;;;;;;;;;;5050153;28;20119;-78
2023/11/20 04:16:51;;;;;;;11.13;1.60;;;;;;;;;;5078520;28;20036;-77
2023/11/20 04:19:17;;;;;;;13.43;2.25;;;;;;;;;;5050898;28;20505;-78
2023/11/20 04:21:43;;;;;;;14.05;2.05;;;;;;;;;;5062862;28;20029;-78
2023/11/20 04:24:08;;;;;;;15.40;2.10;;;;;;;;;;5040042;28;20032;-77
2023/11/20 04:26:34;;;;;;;13.40;2.00;;;;;;;;;;5065434;28;20401;-77
2023/11/20 04:28:59;;;;;;;11.48;2.20;;;;;;;;;;5051948;28;20082;-78
2023/11/20 04:31:25;;;;;;;16.15;2.03;;;;;;;;;;5052168;28;20039;-78
2023/11/20 04:33:51;;;;;;;12.45;1.80;;;;;;;;;;5058129;28;20043;-78
2023/11/20 04:36:16;;;;;;;13.27;1.85;;;;;;;;;;5054174;28;20115;-78
2023/11/20 04:38:42;;;;;;;12.73;2.13;;;;;;;;;;5040477;28;20459;-78
2023/11/20 04:41:07;;;;;;;10.40;1.80;;;;;;;;;;5067324;28;20024;-77
2023/11/20 04:43:33;;;;;;;17.90;3.00;;;;;;;;;;5054297;28;20513;-78
2023/11/20 04:45:59;;;;;;;16.50;2.58;;;;;;;;;;5071385;28;20024;-78
2023/11/20 04:48:24;;;;;;;12.27;2.20;;;;;;;;;;5058718;28;20025;-78
2023/11/20 04:50:52;;;;;;;11.45;2.13;;;;;;;;;;5061264;28;20041;-78
2023/11/20 04:53:18;;;;;;;9.00;2.00;;;;;;;;;;5072180;28;20028;-77
2023/11/20 04:55:43;;;;;;;15.65;2.47;;;;;;;;;;5037691;28;20079;-78
2023/11/20 04:58:09;;;;;;;14.95;2.33;;;;;;;;;;5055824;28;20041;-78
2023/11/20 05:00:34;;;;;;;13.60;2.40;;;;;;;;;;5044063;28;20036;-77
2023/11/20 05:03:00;;;;;;;10.20;1.85;;;;;;;;;;5071426;28;20086;-78
2023/11/20 05:05:26;;;;;;;12.25;2.10;;;;;;;;;;5053757;28;20398;-77
2023/11/20 05:07:52;;;;;;;18.75;2.92;;;;;;;;;;5088828;28;20120;-85
2023/11/20 05:10:17;;;;;;;13.52;1.85;;;;;;;;;;5070176;28;20052;-85
2023/11/20 05:12:43;;;;;;;13.98;2.80;;;;;;;;;;5072499;28;20048;-85
2023/11/20 05:15:09;;;;;;;11.02;2.40;;;;;;;;;;5057105;28;20508;-85
2023/11/20 05:17:34;;;;;;;15.60;2.45;;;;;;;;;;5070738;28;20039;-86
2023/11/20 05:19:59;;;;;;;14.07;2.30;;;;;;;;;;5036918;28;20301;-85
2023/11/20 05:22:26;;;;;;;13.23;1.92;;;;;;;;;;5069950;28;20123;-86
2023/11/20 05:24:52;;;;;;;14.73;2.28;;;;;;;;;;5070861;28;20389;-87
2023/11/20 05:27:18;;;;;;;15.50;2.35;;;;;;;;;;5067284;28;20024;-85
2023/11/20 05:29:46;;;;;;;13.43;1.83;;;;;;;;;;5071157;28;20064;-86
2023/11/20 05:32:11;;;;;;;13.00;2.13;;;;;;;;;;5055601;28;20481;-87
2023/11/20 05:34:38;;;;;;;18.92;2.80;;;;;;;;;;5069514;28;20035;-87
2023/11/20 05:37:04;;;;;;;18.50;2.50;;;;;;;;;;5051920;28;20029;-86
2023/11/20 05:39:30;;;;;;;13.48;2.03;;;;;;;;;;5069149;28;20086;-85
2023/11/20 05:41:55;;;;;;;14.13;2.38;;;;;;;;;;5054422;28;20100;-86
2023/11/20 05:44:21;;;;;;;18.25;2.67;;;;;;;;;;5053447;28;20047;-86
2023/11/20 05:46:46;;;;;;;15.10;2.20;;;;;;;;;;5050616;28;20062;-87
2023/11/20 05:49:12;;;;;;;16.10;1.85;;;;;;;;;;5046304;28;20101;-86
2023/11/20 05:51:37;;;;;;;15.25;2.25;;;;;;;;;;5038432;28;20114;-86
2023/11/20 05:54:03;;;;;;;14.10;1.98;;;;;;;;;;5070540;28;20036;-87
2023/11/20 05:56:29;;;;;;;15.75;2.15;;;;;;;;;;5059379;28;20401;-86
2023/11/20 05:58:55;;;;;;;17.08;2.13;;;;;;;;;;5076600;28;20035;-86
2023/11/20 06:01:22;;;;;;;15.55;2.80;;;;;;;;;;5064444;28;20359;-86
2023/11/20 06:03:47;;;;;;;15.15;1.80;;;;;;;;;;5044952;28;20039;-87
2023/11/20 06:06:20;;;;;;;14.63;2.10;;;;;;;;;;5065564;28;20024;-86
2023/11/20 06:08:46;;;;;;;14.77;2.05;;;;;;;;;;5047185;28;20052;-87
2023/11/20 06:11:21;;;;;;;14.27;1.98;;;;;;;;;;5065915;28;20048;-86
2023/11/20 06:13:47;;;;;;;13.00;2.10;;;;;;;;;;5074182;28;20032;-86
2023/11/20 06:16:17;;;;;;;13.00;2.67;;;;;;;;;;5070029;28;20028;-78
2023/11/20 06:18:43;;;;;;;17.27;2.42;;;;;;;;;;5047600;28;20170;-77
2023/11/20 06:21:08;;;;;;;16.58;2.13;;;;;;;;;;5058353;28;20095;-78
2023/11/20 06:23:35;;;;;;;13.15;2.30;;;;;;;;;;5062275;28;20032;-78
2023/11/20 06:26:02;;;;;;;17.08;2.42;;;;;;;;;;5066495;28;20036;-77
2023/11/20 06:28:28;;;;;;;12.40;1.85;;;;;;;;;;5067481;28;20482;-78
2023/11/20 06:30:53;;;;;;;14.18;2.05;;;;;;;;;;5075216;28;20040;-78
2023/11/20 06:33:20;;;;;;;12.82;2.00;;;;;;;;;;5063451;28;20085;-78
2023/11/20 06:35:45;;;;;;;16.73;2.47;;;;;;;;;;5079054;28;20028;-78
2023/11/20 06:38:11;;;;;;;13.20;2.40;;;;;;;;;;5068642;28;20402;-78
2023/11/20 06:40:37;;;;;;;13.60;2.03;;;;;;;;;;5068489;28;20028;-78
2023/11/20 06:43:04;;;;;;;16.38;2.33;;;;;;;;;;5034113;28;20035;-78
2023/11/20 06:45:30;;;;;;;15.80;1.90;;;;;;;;;;5051478;28;20033;-77
2023/11/20 06:47:56;;;;;;;14.02;2.38;;;;;;;;;;5066726;28;20032;-78
2023/11/20 06:50:24;;;;;;;13.15;2.15;;;;;;;;;;5063975;28;20032;-77
2023/11/20 06:52:51;;;;;;;13.07;2.03;;;;;;;;;;5061979;28;20028;-77
2023/11/20 06:55:17;;;;;;;12.85;1.92;;;;;;;;;;5059030;28;20119;-78
2023/11/20 06:57:44;;;;;;;15.25;2.28;;;;;;;;;;5034722;28;20566;-78
2023/11/20 07:00:12;;;;;;;17.85;2.47;;;;;;;;;;5064770;28;20056;-78
2023/11/20 07:02:38;;;;;;;17.08;2.03;;;;;;;;;;5083226;28;20036;-78
2023/11/20 07:05:04;;;;;;;17.13;2.60;;;;;;;;;;5033785;28;20036;-78
2023/11/20 07:07:29;;;;;;;16.25;2.55;;;;;;;;;;5069957;28;20036;-77
2023/11/20 07:09:55;;;;;;;16.75;2.25;;;;;;;;;;5066325;28;20425;-78
2023/11/20 07:12:21;;;;;;;16.27;2.70;;;;;;;;;;5066629;28;20505;-78
2023/11/20 07:14:46;;;;;;;16.58;2.70;;;;;;;;;;5058644;28;20083;-78
2023/11/20 07:17:13;;;;;;;13.27;2.22;;;;;;;;;;5043795;28;20041;-78
2023/11/20 07:19:40;;;;;;;16.30;2.70;;;;;;;;;;5059212;28;20025;-77
2023/11/20 07:22:06;;;;;;;17.30;2.65;;;;;;;;;;5070414;28;20024;-78
2023/11/20 07:24:31;;;;;;;13.65;2.10;;;;;;;;;;5059790;28;20074;-78
2023/11/20 07:26:57;;;;;;;12.63;2.60;;;;;;;;;;5041739;28;20119;-87
2023/11/20 07:29:22;;;;;;;21.05;2.70;;;;;;;;;;5053807;28;20062;-87
2023/11/20 07:31:49;;;;;;;19.45;3.15;;;;;;;;;;5035552;28;20083;-86
2023/11/20 07:34:14;;;;;;;16.98;2.55;;;;;;;;;;5053584;28;20033;-86
2023/11/20 07:36:40;;;;;;;11.20;1.70;;;;;;;;;;5065744;28;20703;-86
2023/11/20 07:39:06;;;;;;;19.33;2.63;;;;;;;;;;5036043;28;20044;-85
2023/11/20 07:41:31;;;;;;;14.13;1.73;;;;;;;;;;5057030;28;20054;-86
2023/11/20 07:43:57;;;;;;;14.18;1.83;;;;;;;;;;5037240;28;20246;-85
2023/11/20 07:46:22;;;;;;;14.15;2.10;;;;;;;;;;5058266;28;20162;-85
2023/11/20 07:48:50;;;;;;;15.57;2.40;;;;;;;;;;5041724;28;20028;-87
2023/11/20 07:51:16;;;;;;;17.92;2.30;;;;;;;;;;5086567;28;20047;-86
2023/11/20 07:53:42;;;;;;;15.60;2.50;;;;;;;;;;5069158;28;20036;-87
2023/11/20 07:56:08;;;;;;;9.38;1.85;;;;;;;;;;5058831;28;20036;-86
2023/11/20 07:58:33;;;;;;;14.32;2.08;;;;;;;;;;5038203;28;20105;-87
2023/11/20 08:00:59;;;;;;;18.08;2.30;;;;;;;;;;5061637;28;20029;-87
2023/11/20 08:03:25;;;;;;;11.48;1.80;;;;;;;;;;5067953;28;20082;-87
2023/11/20 08:05:50;;;;;;;12.57;2.42;;;;;;;;;;5061178;28;20439;-87
2023/11/20 08:08:16;;;;;;;14.13;2.10;;;;;;;;;;5071249;28;20046;-78
2023/11/20 08:10:42;;;;;;;13.13;2.08;;;;;;;;;;5072471;28;20032;-78
2023/11/20 08:13:07;;;;;;;18.90;2.22;;;;;;;;;;5056753;28;20020;-78
2023/11/20 08:15:33;;;;;;;12.20;2.00;;;;;;;;;;5067246;28;20036;-77
2023/11/20 08:17:58;;;;;;;13.77;2.50;;;;;;;;;;5052673;28;20033;-78
2023/11/20 08:20:24;;;;;;;13.95;1.83;;;;;;;;;;5048901;28;20035;-78
2023/11/20 08:22:49;;;;;;;15.85;2.08;;;;;;;;;;5068603;28;20398;-77
2023/11/20 08:25:15;;;;;;;14.13;2.83;;;;;;;;;;5061764;28;20110;-78
2023/11/20 08:27:41;;;;;;;19.10;2.40;;;;;;;;;;5050622;28;20174;-78
2023/11/20 08:30:08;;;;;;;15.95;2.47;;;;;;;;;;5073814;28;20040;-78
2023/11/20 08:32:34;;;;;;;16.95;2.20;;;;;;;;;;5056679;28;20423;-78
2023/11/20 08:34:59;;;;;;;13.00;2.03;;;;;;;;;;5057882;28;20039;-78
2023/11/20 08:37:25;;;;;;;11.93;1.70;;;;;;;;;;5055301;28;20406;-78
2023/11/20 08:39:51;;;;;;;17.30;2.70;;;;;;;;;;5049913;28;20044;-78
2023/11/20 08:42:16;;;;;;;18.25;2.55;;;;;;;;;;5055294;28;20028;-78
2023/11/20 08:44:42;;;;;;;15.95;2.53;;;;;;;;;;5090267;28;20569;-78
2023/11/20 08:47:08;;;;;;;16.17;2.95;;;;;;;;;;5076970;28;20035;-78
2023/11/20 08:49:36;;;;;;;18.60;2.17;;;;;;;;;;5053563;28;20785;-78
2023/11/20 08:52:01;;;;;;;14.02;2.65;;;;;;;;;;5065117;28;20029;-77
2023/11/20 08:54:26;;;;;;;14.18;2.97;;;;;;;;;;5061599;28;20457;-78
2023/11/20 08:56:52;;;;;;;12.93;2.20;;;;;;;;;;5048018;28;20052;-78
2023/11/20 08:59:18;;;;;;;16.92;3.10;;;;;;;;;;5031259;28;20398;-78
2023/11/20 09:01:45;;;;;;;20.63;2.80;;;;;;;;;;5053764;28;20028;-78
2023/11/20 09:04:12;;;;;;;16.95;3.05;;;;;;;;;;5041653;28;20036;-78
2023/11/20 09:06:37;;;;;;;17.98;2.88;;;;;;;;;;5065088;28;20040;-78
2023/11/20 09:09:05;;;;;;;19.25;3.47;;;;;;;;;;5058283;28;20530;-78
2023/11/20 09:11:31;;;;;;;16.27;3.65;;;;;;;;;;5053523;28;20029;-78
2023/11/20 09:13:57;;;;;;;17.63;3.85;;;;;;;;;;5066540;28;20491;-78
2023/11/20 09:16:22;;;;;;;16.10;3.70;;;;;;;;;;5055730;28;20040;-78
2023/11/20 09:18:48;;;;;;;16.33;4.47;;;;;;;;;;5071818;28;20059;-78
2023/11/20 09:21:14;;;;;;;15.27;4.60;;;;;;;;;;5061993;28;20508;-78
2023/11/20 09:23:40;;;;;;;15.95;4.57;;;;;;;;;;5070150;28;20053;-78
2023/11/20 09:26:12;;;;;;;17.38;5.13;;;;;;;;;;5067629;28;20115;-78
2023/11/20 09:28:39;;;;;;;21.45;5.95;;;;;;;;;;5070278;28;20036;-79
2023/11/20 09:31:04;;;;;;;21.25;6.00;;;;;;;;;;5053415;28;20037;-78
2023/11/20 09:33:30;;;;;;;18.67;5.30;;;;;;;;;;5048711;28;20037;-78
2023/11/20 09:35:55;;;;;;;18.67;4.90;;;;;;;;;;5067457;28;20066;-78
2023/11/20 09:38:21;;;;;;;19.60;5.05;;;;;;;;;;5062965;28;20039;-78
2023/11/20 09:40:46;;;;;;;19.55;5.00;;;;;;;;;;5072022;28;20032;-78
2023/11/20 09:43:13;;;;;;;18.70;4.63;;;;;;;;;;5044544;28;20394;-78
2023/11/20 09:45:41;;;;;;;16.10;4.22;;;;;;;;;;5057994;28;20118;-78
2023/11/20 09:48:07;;;;;;;22.08;4.85;;;;;;;;;;5078031;28;20029;-86
2023/11/20 09:50:32;;;;;;;17.77;5.32;;;;;;;;;;5075830;28;20033;-86
2023/11/20 09:52:59;;;;;;;18.60;5.25;;;;;;;;;;5063446;28;20032;-86
2023/11/20 09:55:25;;;;;;;14.02;4.80;;;;;;;;;;5071004;28;20090;-88
2023/11/20 09:57:51;;;;;;;15.88;5.18;;;;;;;;;;5070424;28;20123;-86
2023/11/20 10:00:17;;;;;;;18.42;5.45;;;;;;;;;;5083408;28;20509;-87
2023/11/20 10:02:47;;;;;;;16.23;4.90;;;;;;;;;;5079015;28;20031;-86
2023/11/20 10:05:26;;;;;;;20.15;5.82;;;;;;;;;;5078777;28;20028;-86
2023/11/20 10:07:56;;;;;;;21.60;6.13;;;;;;;;;;5073498;28;20039;-86
2023/11/20 10:10:22;;;;;;;15.15;5.65;;;;;;;;;;5076535;28;20101;-87
2023/11/20 10:12:48;;;;;;;21.45;6.50;;;;;;;;;;5042600;28;20379;-86
2023/11/20 10:15:14;;;;;;;20.05;6.50;;;;;;;;;;5073511;28;20132;-87
2023/11/20 10:17:40;;;;;;;17.17;5.75;;;;;;;;;;5069570;28;20397;-87
2023/11/20 10:20:09;;;;;;;14.63;6.10;;;;;;;;;;5067061;28;20119;-87
2023/11/20 10:22:36;;;;;;;15.88;6.18;;;;;;;;;;5080229;28;20029;-86
2023/11/20 10:25:05;;;;;;;18.10;6.70;;;;;;;;;;5064078;28;20036;-87
2023/11/20 10:27:31;;;;;;;19.17;6.75;;;;;;;;;;5072479;28;20028;-88
2023/11/20 10:29:57;;;;;;;15.63;6.65;;;;;;;;;;5073967;28;20039;-87
2023/11/20 10:32:25;;;;;;;18.13;6.85;;;;;;;;;;5072719;28;20079;-87
2023/11/20 10:35:11;;;;;;;21.55;7.00;;;;;;;;;;5065397;28;20032;-87
2023/11/20 10:37:51;;;;;;;14.60;6.78;;;;;;;;;;5074061;28;20020;-86
2023/11/20 10:40:18;;;;;;;22.45;6.68;;;;;;;;;;5073663;28;20474;-87
2023/11/20 10:42:43;;;;;;;19.35;6.63;;;;;;;;;;5059066;28;20031;-88
2023/11/20 10:45:09;;;;;;;19.70;6.85;;;;;;;;;;5052775;28;20032;-86
2023/11/20 10:47:34;;;;;;;15.73;5.80;;;;;;;;;;5038378;28;20079;-88
2023/11/20 10:50:00;;;;;;;16.67;5.82;;;;;;;;;;5070221;28;21540;-87
2023/11/20 10:52:29;;;;;;;19.25;5.57;;;;;;;;;;5093109;28;20024;-87
2023/11/20 10:55:00;;;;;;;15.80;5.15;;;;;;;;;;5070071;28;20028;-87
2023/11/20 10:57:26;;;;;;;14.30;5.30;;;;;;;;;;5058082;28;20028;-78
2023/11/20 10:59:55;;;;;;;16.50;5.18;;;;;;;;;;5061129;28;20025;-77
2023/11/20 11:02:23;;;;;;;14.77;4.95;;;;;;;;;;5037569;28;20142;-78
2023/11/20 11:04:52;;;;;;;14.65;4.97;;;;;;;;;;5062486;28;20493;-79
2023/11/20 11:07:21;;;;;;;16.40;5.05;;;;;;;;;;5051977;28;20036;-78
2023/11/20 11:09:48;;;;;;;12.38;4.45;;;;;;;;;;5060638;28;20036;-77
2023/11/20 11:12:15;;;;;;;15.45;4.43;;;;;;;;;;5036380;28;20028;-78
2023/11/20 11:14:41;;;;;;;17.35;4.82;;;;;;;;;;5065637;28;20055;-78
2023/11/20 11:17:16;;;;;;;11.18;4.13;;;;;;;;;;5050555;28;20063;-78
2023/11/20 11:19:46;;;;;;;14.52;4.25;;;;;;;;;;5069344;28;20455;-78
2023/11/20 11:22:21;;;;;;;14.05;4.32;;;;;;;;;;5063913;28;20024;-78
2023/11/20 11:24:50;;;;;;;16.73;4.13;;;;;;;;;;5063857;28;20054;-78
2023/11/20 11:27:19;;;;;;;9.27;3.50;;;;;;;;;;5082339;28;20036;-78
2023/11/20 11:29:49;;;;;;;12.95;3.38;;;;;;;;;;5059897;28;20024;-78
2023/11/20 11:32:18;;;;;;;14.48;3.85;;;;;;;;;;5065323;28;20039;-77
2023/11/20 11:35:17;;;;;;;11.93;3.35;;;;;;;;;;5072882;28;20064;-78
2023/11/20 11:37:55;;;;;;;11.55;2.75;;;;;;;;;;5075116;28;20111;-86
2023/11/20 11:40:42;;;;;;;14.88;2.92;;;;;;;;;;5057802;28;20032;-87
2023/11/20 11:43:34;;;;;;;10.52;2.58;;;;;;;;;;5066615;28;20489;-86
2023/11/20 11:46:03;;;;;;;15.75;3.17;;;;;;;;;;5070356;28;20040;-86
2023/11/20 11:48:38;;;;;;;9.98;2.22;;;;;;;;;;5060291;28;20525;-86
2023/11/20 11:51:05;;;;;;;12.07;2.60;;;;;;;;;;5045446;28;20037;-86
2023/11/20 11:53:31;;;;;;;15.85;2.20;;;;;;;;;;5057129;28;20032;-86
2023/11/20 11:56:09;;;;;;;10.77;2.35;;;;;;;;;;5068241;28;20478;-87
2023/11/20 11:58:37;;;;;;;10.75;2.30;;;;;;;;;;5063985;28;20068;-87
2023/11/20 12:01:16;;;;;;;9.55;2.33;;;;;;;;;;5079407;28;20060;-86
2023/11/20 12:03:42;;;;;;;14.32;2.88;;;;;;;;;;5067258;28;20505;-87
2023/11/20 12:06:09;;;;;;;10.60;2.30;;;;;;;;;;5061898;28;20106;-79
2023/11/20 12:08:36;;;;;;;8.57;2.13;;;;;;;;;;5062683;28;20029;-87
2023/11/20 12:11:01;;;;;;;10.27;2.20;;;;;;;;;;5070228;28;20029;-87
2023/11/20 12:13:27;;;;;;;13.27;2.85;;;;;;;;;;5065145;28;20059;-87
2023/11/20 12:16:02;;;;;;;13.75;3.33;;;;;;;;;;5030595;28;20042;-88
2023/11/20 12:18:35;;;;;;;10.38;2.60;;;;;;;;;;5085907;28;20032;-88
2023/11/20 12:21:10;;;;;;;11.88;2.85;;;;;;;;;;5065227;28;20028;-88
2023/11/20 12:23:36;;;;;;;6.45;2.00;;;;;;;;;;5065680;28;20029;-87
2023/11/20 12:26:06;;;;;;;9.50;2.78;;;;;;;;;;5061975;28;20090;-87
2023/11/20 12:28:33;;;;;;;10.20;2.30;;;;;;;;;;5062127;28;20075;-86
2023/11/20 12:31:07;;;;;;;7.28;2.28;;;;;;;;;;5068833;28;20526;-87
2023/11/20 12:33:41;;;;;;;11.52;2.35;;;;;;;;;;5064510;28;20494;-87
2023/11/20 12:36:08;;;;;;;9.40;2.28;;;;;;;;;;5066804;28;20033;-86
2023/11/20 12:38:35;;;;;;;8.43;2.60;;;;;;;;;;5047643;28;20043;-87
2023/11/20 12:41:05;;;;;;;10.60;2.63;;;;;;;;;;5048778;28;20028;-88
2023/11/20 12:43:32;;;;;;;9.23;2.10;;;;;;;;;;5067636;28;20406;-87
2023/11/20 12:45:59;;;;;;;7.55;2.20;;;;;;;;;;5044963;28;20066;-88
2023/11/20 12:48:25;;;;;;;10.32;2.28;;;;;;;;;;5047268;28;20032;-78
2023/11/20 12:50:50;;;;;;;9.85;2.00;;;;;;;;;;5064433;28;20624;-78
2023/11/20 12:53:20;;;;;;;13.13;2.08;;;;;;;;;;5049320;28;20124;-78
2023/11/20 12:55:53;;;;;;;12.55;2.65;;;;;;;;;;5063359;28;20059;-78
2023/11/20 12:58:19;;;;;;;;;;;;;;;;;;5059152;28;20044;-78
2023/11/20 13:00:47;;;;;;;12.70;2.22;;;;;;;;;;5069567;28;19919;-77
2023/11/20 13:03:17;;;;;;;16.38;2.50;;;;;;;;;;5063946;28;20039;-78
2023/11/20 13:05:52;;;;;;;11.63;2.28;;;;;;;;;;5057983;28;20032;-78
2023/11/20 13:08:20;;;;;;;10.60;2.05;;;;;;;;;;5048894;28;20059;-78
2023/11/20 13:11:04;;;;;;;10.73;2.20;;;;;;;;;;5069310;28;20032;-78
2023/11/20 13:13:35;;;;;;;12.07;2.10;;;;;;;;;;5043606;28;20161;-78
2023/11/20 13:16:13;;;;;;;13.98;2.40;;;;;;;;;;5057767;28;20055;-78
2023/11/20 13:18:48;;;;;;;10.77;2.45;;;;;;;;;;5063564;28;20031;-78
2023/11/20 13:21:23;;;;;;;10.20;2.08;;;;;;;;;;5064342;28;20025;-78
2023/11/20 13:24:04;;;;;;;8.60;2.25;;;;;;;;;;5051150;28;20896;-78
2023/11/20 13:26:30;;;;;;;12.95;2.55;;;;;;;;;;5064205;28;20055;-78
2023/11/20 13:28:59;;;;;;;9.40;2.00;;;;;;;;;;5068725;28;20111;-78
2023/11/20 13:31:34;;;;;;;15.38;2.55;;;;;;;;;;5048425;28;20544;-78
2023/11/20 13:34:00;;;;;;;8.15;2.25;;;;;;;;;;5059979;28;20516;-77
2023/11/20 13:36:25;;;;;;;8.48;2.13;;;;;;;;;;5054703;28;20041;-78
2023/11/20 13:38:51;;;;;;;12.35;2.50;;;;;;;;;;5058165;28;20072;-78
2023/11/20 13:41:16;;;;;;;10.63;2.65;;;;;;;;;;5062425;28;20064;-78
2023/11/20 13:43:42;;;;;;;9.13;2.28;;;;;;;;;;5060678;28;20028;-78
2023/11/20 13:46:08;;;;;;;7.10;2.20;;;;;;;;;;5075420;28;20054;-78
2023/11/20 13:48:34;;;;;;;9.52;2.42;;;;;;;;;;5061289;28;20040;-78
2023/11/20 13:51:01;;;;;;;8.18;2.55;;;;;;;;;;5061149;28;20033;-77
2023/11/20 13:53:27;;;;;;;6.63;2.25;;;;;;;;;;5059592;28;20544;-78
2023/11/20 13:55:54;;;;;;;10.85;2.80;;;;;;;;;;5047911;28;20040;-78
2023/11/20 13:58:24;;;;;;;9.35;2.65;;;;;;;;;;5084518;28;20508;-90
2023/11/20 14:00:58;;;;;;;8.63;2.50;;;;;;;;;;5070101;28;20074;-88
2023/11/20 14:03:29;;;;;;;12.13;2.78;;;;;;;;;;5065108;28;20028;-90
2023/11/20 14:05:55;;;;;;;10.35;2.60;;;;;;;;;;5083540;28;20029;-89
2023/11/20 14:08:20;;;;;;;11.05;2.95;;;;;;;;;;5071657;28;20039;-90
2023/11/20 14:10:58;;;;;;;11.13;2.92;;;;;;;;;;5070916;28;20119;-88
2023/11/20 14:13:26;;;;;;;7.88;2.65;;;;;;;;;;5071883;28;20054;-89
2023/11/20 14:15:53;;;;;;;8.13;2.10;;;;;;;;;;5068756;28;20060;-89
2023/11/20 14:18:20;;;;;;;6.60;2.22;;;;;;;;;;5071696;28;20023;-88
2023/11/20 14:20:46;;;;;;;7.05;2.85;;;;;;;;;;5063813;28;20028;-90
2023/11/20 14:23:11;;;;;;;5.15;1.80;;;;;;;;;;5066409;28;20039;-88
2023/11/20 14:25:37;;;;;;;8.25;2.22;;;;;;;;;;5072134;28;20047;-88
2023/11/20 14:28:03;;;;;;;7.65;2.10;;;;;;;;;;5050743;28;20056;-78
2023/11/20 14:31:06;;;;;;;7.20;2.35;;;;;;;;;;5073867;28;20029;-77